Time;durP1;ratioP1;P1;durP2;ratioP2;P2;SDS_P1;SDS_P2;PMS_P1;PMS_P2;Temp;Humidity;BMP_temperature;BMP_pressure;BME280_temperature;BME280_humidity;BME280_pressure;Samples;Min_cycle;Max_cycle;Signal;HPM_P1;HPM_P2
2023/06/23 09:26:56;;;;;;;;;18.25;14.75;;;;;;;;5141531;27;13349;-78
2023/06/23 09:29:26;;;;;;;;;15.00;15.00;;;;;;;;5148247;27;9855;-81
2023/06/23 09:31:52;;;;;;;;;19.00;15.25;;;;;;;;5148050;27;8901;-80
2023/06/23 09:34:21;;;;;;;;;16.00;14.00;;;;;;;;5147484;27;8805;-88
2023/06/23 09:36:46;;;;;;;;;12.75;11.25;;;;;;;;5145287;27;8801;-84
2023/06/23 09:39:15;;;;;;;;;12.67;11.33;;;;;;;;5147922;27;8780;-82
2023/06/23 09:41:44;;;;;;;;;13.75;12.25;;;;;;;;5148518;27;8779;-82
2023/06/23 09:44:11;;;;;;;;;14.25;13.25;;;;;;;;5091521;27;10692;-82
2023/06/23 09:46:36;;;;;;;;;17.00;14.00;;;;;;;;5096147;28;9014;-82
2023/06/23 09:49:02;;;;;;;;;15.00;13.33;;;;;;;;5109176;28;8800;-81
2023/06/23 09:51:27;;;;;;;;;16.67;13.67;;;;;;;;5088284;28;8807;-81
2023/06/23 09:53:52;;;;;;;;;15.00;13.00;;;;;;;;5087034;28;8804;-82
2023/06/23 09:56:19;;;;;;;;;14.33;13.00;;;;;;;;5092824;28;8970;-81
2023/06/23 09:58:45;;;;;;;;;14.25;12.75;;;;;;;;5064377;28;11089;-81
2023/06/23 10:01:11;;;;;;;;;17.00;15.00;;;;;;;;5091763;28;8825;-82
2023/06/23 10:03:43;;;;;;;;;16.00;15.00;;;;;;;;5085678;28;8918;-82
2023/06/23 10:06:19;;;;;;;;;14.50;13.75;;;;;;;;5076727;28;8861;-82
2023/06/23 10:08:45;;;;;;;;;20.25;17.00;;;;;;;;5086864;28;8838;-78
2023/06/23 10:11:10;;;;;;;;;15.67;15.00;;;;;;;;5086297;28;8807;-79
2023/06/23 10:13:35;;;;;;;;;19.00;17.67;;;;;;;;5085594;28;8829;-80
2023/06/23 10:16:01;;;;;;;;;17.00;17.00;;;;;;;;5083814;28;8839;-80
2023/06/23 10:18:27;;;;;;;;;18.67;17.00;;;;;;;;5086003;28;8807;-82
2023/06/23 10:20:53;;;;;;;;;13.25;12.75;;;;;;;;5086392;28;9564;-82
2023/06/23 10:23:20;;;;;;;;;17.67;14.33;;;;;;;;5086747;28;8822;-84
2023/06/23 10:25:47;;;;;;;;;15.25;14.00;;;;;;;;5083948;28;9647;-82
2023/06/23 10:28:15;;;;;;;;;18.25;16.00;;;;;;;;5085649;28;8907;-77
2023/06/23 10:30:42;;;;;;;;;17.25;16.25;;;;;;;;5085896;28;8929;-81
2023/06/23 10:33:09;;;;;;;;;18.00;15.75;;;;;;;;5086197;28;8844;-84
2023/06/23 10:35:36;;;;;;;;;17.00;15.25;;;;;;;;5084281;28;8878;-84
2023/06/23 10:38:03;;;;;;;;;16.25;14.00;;;;;;;;5072902;28;8899;-81
2023/06/23 10:40:33;;;;;;;;;18.50;14.75;;;;;;;;5071816;28;8933;-80
2023/06/23 10:43:00;;;;;;;;;14.25;13.00;;;;;;;;5071106;28;8846;-83
2023/06/23 10:45:25;;;;;;;;;15.75;14.25;;;;;;;;5070961;28;8814;-84
2023/06/23 10:47:50;;;;;;;;;14.33;12.67;;;;;;;;5072033;28;8917;-80
2023/06/23 10:50:17;;;;;;;;;17.67;15.33;;;;;;;;5070926;28;8802;-81
2023/06/23 10:52:43;;;;;;;;;16.00;15.75;;;;;;;;5073238;28;8771;-81
2023/06/23 10:55:27;;;;;;;;;13.00;9.00;;;;;;;;5074748;28;8842;-82
2023/06/23 10:58:10;;;;;;;;;17.25;13.75;;;;;;;;5069550;28;8984;-79
2023/06/23 11:00:36;;;;;;;;;13.00;12.50;;;;;;;;5072229;28;8795;-80
2023/06/23 11:03:01;;;;;;;;;16.33;15.33;;;;;;;;5071581;28;8837;-76
2023/06/23 11:05:26;;;;;;;;;11.33;8.00;;;;;;;;5070451;28;8795;-75
2023/06/23 11:08:07;;;;;;;;;16.33;14.00;;;;;;;;5071734;28;8960;-76
2023/06/23 11:10:46;;;;;;;;;16.00;14.25;;;;;;;;5071287;28;9564;-76
2023/06/23 11:13:12;;;;;;;;;15.50;14.50;;;;;;;;5070979;28;8802;-80
2023/06/23 11:15:37;;;;;;;;;18.33;15.00;;;;;;;;5068831;28;9003;-75
2023/06/23 11:18:06;;;;;;;;;16.67;15.67;;;;;;;;5067899;28;11545;-76
2023/06/23 11:20:33;;;;;;;;;15.75;15.50;;;;;;;;5069844;28;8818;-76
2023/06/23 11:23:03;;;;;;;;;12.75;12.75;;;;;;;;5069889;28;9225;-82
2023/06/23 11:25:33;;;;;;;;;14.50;14.50;;;;;;;;5068538;28;8984;-82
2023/06/23 11:28:17;;;;;;;;;15.25;14.00;;;;;;;;5069867;28;8814;-79
2023/06/23 11:31:03;;;;;;;;;9.00;6.75;;;;;;;;5071845;28;8814;-77
2023/06/23 11:33:32;;;;;;;;;14.75;14.25;;;;;;;;5071494;28;8828;-78
2023/06/23 11:36:01;;;;;;;;;13.75;13.00;;;;;;;;5070828;28;8822;-80
2023/06/23 11:38:30;;;;;;;;;16.25;14.00;;;;;;;;5069539;28;8838;-77
2023/06/23 11:40:56;;;;;;;;;16.00;13.00;;;;;;;;5070810;28;8799;-79
2023/06/23 11:43:22;;;;;;;;;13.50;13.00;;;;;;;;5071110;28;8783;-81
2023/06/23 11:45:56;;;;;;;;;14.25;12.25;;;;;;;;5070444;28;8799;-76
2023/06/23 11:48:30;;;;;;;;;16.00;14.00;;;;;;;;5068057;28;8806;-75
2023/06/23 11:50:56;;;;;;;;;17.00;13.75;;;;;;;;5048827;28;9647;-75
2023/06/23 11:53:21;;;;;;;;;13.00;12.00;;;;;;;;5048811;28;8919;-73
2023/06/23 11:55:48;;;;;;;;;14.33;12.00;;;;;;;;5022151;28;11613;-75
2023/06/23 11:58:14;;;;;;;;;10.50;10.50;;;;;;;;5066041;28;9553;-75
2023/06/23 12:00:39;;;;;;;;;12.00;11.33;;;;;;;;5069420;28;8829;-75
2023/06/23 12:03:04;;;;;;;;;12.33;12.00;;;;;;;;5080772;28;9499;-75
2023/06/23 12:05:30;;;;;;;;;11.00;11.00;;;;;;;;5078427;28;8807;-75
2023/06/23 12:07:56;;;;;;;;;11.00;10.00;;;;;;;;5074637;28;8998;-76
2023/06/23 12:10:22;;;;;;;;;13.50;10.25;;;;;;;;5074308;28;8895;-69
2023/06/23 12:12:48;;;;;;;;;15.75;13.25;;;;;;;;5078676;28;8792;-74
2023/06/23 12:15:14;;;;;;;;;13.25;12.75;;;;;;;;5078202;28;8803;-73
2023/06/23 12:17:41;;;;;;;;;13.67;11.33;;;;;;;;5079493;28;8839;-73
2023/06/23 12:20:07;;;;;;;;;11.25;10.50;;;;;;;;5077922;28;8811;-69
2023/06/23 12:22:36;;;;;;;;;11.67;9.00;;;;;;;;5069159;28;9545;-71
2023/06/23 12:25:01;;;;;;;;;11.00;9.50;;;;;;;;5069642;28;9059;-76
2023/06/23 12:27:29;;;;;;;;;10.00;8.00;;;;;;;;5068560;28;8932;-75
2023/06/23 12:29:54;;;;;;;;;10.25;9.00;;;;;;;;5069770;28;8799;-77
2023/06/23 12:32:19;;;;;;;;;9.00;8.00;;;;;;;;5069721;28;8842;-76
2023/06/23 12:34:48;;;;;;;;;8.00;8.00;;;;;;;;5069155;28;8858;-75
2023/06/23 12:37:14;;;;;;;;;8.75;8.75;;;;;;;;5069141;28;8830;-76
2023/06/23 12:39:40;;;;;;;;;10.00;7.33;;;;;;;;5067822;28;8822;-78
2023/06/23 12:42:08;;;;;;;;;11.00;7.33;;;;;;;;5067663;28;9626;-76
2023/06/23 12:44:36;;;;;;;;;10.75;9.00;;;;;;;;5065457;28;8860;-77
2023/06/23 12:47:01;;;;;;;;;6.00;6.00;;;;;;;;5049571;28;8801;-76
2023/06/23 12:49:27;;;;;;;;;7.67;6.33;;;;;;;;5059387;28;8811;-75
2023/06/23 12:51:53;;;;;;;;;9.25;6.50;;;;;;;;5069469;28;8814;-75
2023/06/23 12:54:18;;;;;;;;;8.00;7.33;;;;;;;;5069597;28;9538;-76
2023/06/23 12:56:43;;;;;;;;;7.00;6.33;;;;;;;;5068994;28;8858;-77
2023/06/23 12:59:09;;;;;;;;;7.67;6.00;;;;;;;;5069341;28;8860;-75
2023/06/23 13:01:36;;;;;;;;;7.67;6.67;;;;;;;;5069157;28;8824;-77
2023/06/23 13:04:02;;;;;;;;;8.50;7.50;;;;;;;;5068841;28;8979;-76
2023/06/23 13:06:28;;;;;;;;;8.67;6.00;;;;;;;;5069118;28;8815;-75
2023/06/23 13:08:54;;;;;;;;;8.00;7.00;;;;;;;;5069205;28;8825;-77
2023/06/23 13:11:21;;;;;;;;;6.25;6.00;;;;;;;;5067728;28;8932;-76
2023/06/23 13:13:47;;;;;;;;;7.00;6.00;;;;;;;;5080921;28;8909;-76
2023/06/23 13:16:12;;;;;;;;;5.00;5.00;;;;;;;;5052143;28;8841;-77
2023/06/23 13:18:37;;;;;;;;;6.33;6.33;;;;;;;;5052375;28;9530;-77
2023/06/23 13:21:03;;;;;;;;;5.33;5.33;;;;;;;;5068372;28;9541;-76
2023/06/23 13:23:28;;;;;;;;;8.33;8.00;;;;;;;;5067834;28;8980;-75
2023/06/23 13:25:53;;;;;;;;;9.00;8.00;;;;;;;;5069022;28;8818;-75
2023/06/23 13:28:19;;;;;;;;;10.00;7.33;;;;;;;;5066971;28;8946;-76
2023/06/23 13:30:44;;;;;;;;;5.00;5.00;;;;;;;;5068809;28;8849;-75
2023/06/23 13:33:10;;;;;;;;;8.00;8.00;;;;;;;;5067420;28;8896;-75
2023/06/23 13:35:35;;;;;;;;;6.67;6.67;;;;;;;;5068760;28;8846;-75
2023/06/23 13:38:01;;;;;;;;;8.33;6.33;;;;;;;;5068194;28;8848;-75
2023/06/23 13:40:27;;;;;;;;;7.00;7.00;;;;;;;;5068681;28;8818;-74
2023/06/23 13:42:52;;;;;;;;;8.67;7.33;;;;;;;;5016281;28;11673;-75
2023/06/23 13:45:17;;;;;;;;;9.00;6.00;;;;;;;;5060126;28;8907;-76
2023/06/23 13:47:43;;;;;;;;;9.00;6.00;;;;;;;;5067739;28;8905;-76
2023/06/23 13:50:14;;;;;;;;;9.00;8.00;;;;;;;;5067603;28;8822;-78
2023/06/23 13:52:40;;;;;;;;;4.25;4.00;;;;;;;;5069004;28;8826;-77
2023/06/23 13:55:07;;;;;;;;;5.67;5.00;;;;;;;;5069133;28;8842;-75
2023/06/23 13:57:32;;;;;;;;;7.50;6.00;;;;;;;;5067745;28;8783;-76
2023/06/23 13:59:57;;;;;;;;;9.00;7.33;;;;;;;;5066503;28;9613;-74
2023/06/23 14:02:23;;;;;;;;;5.67;5.67;;;;;;;;5066190;28;8815;-76
2023/06/23 14:04:49;;;;;;;;;3.00;3.00;;;;;;;;5066643;28;8865;-75
2023/06/23 14:07:14;;;;;;;;;7.00;6.00;;;;;;;;5067118;28;8815;-77
2023/06/23 14:09:40;;;;;;;;;5.67;4.67;;;;;;;;5068563;28;8823;-78
2023/06/23 14:12:05;;;;;;;;;5.00;4.00;;;;;;;;5066001;28;8921;-78
2023/06/23 14:14:31;;;;;;;;;5.33;4.67;;;;;;;;5059839;28;8805;-78
2023/06/23 14:16:56;;;;;;;;;5.00;5.00;;;;;;;;5052181;28;8805;-77
2023/06/23 14:19:21;;;;;;;;;5.67;5.33;;;;;;;;5062211;28;8814;-78
2023/06/23 14:21:47;;;;;;;;;6.00;5.67;;;;;;;;5072152;28;8908;-78
2023/06/23 14:24:12;;;;;;;;;5.33;5.33;;;;;;;;5073028;28;8783;-73
2023/06/23 14:26:37;;;;;;;;;6.33;6.00;;;;;;;;5071825;28;8819;-74
2023/06/23 14:29:03;;;;;;;;;6.67;5.00;;;;;;;;5071867;28;9518;-75
2023/06/23 14:31:28;;;;;;;;;9.00;6.00;;;;;;;;5051490;28;11050;-74
2023/06/23 14:33:53;;;;;;;;;6.00;5.00;;;;;;;;5091436;28;8883;-74
2023/06/23 14:36:18;;;;;;;;;6.67;6.67;;;;;;;;5096331;28;8846;-75
2023/06/23 14:38:44;;;;;;;;;6.33;5.33;;;;;;;;5088523;28;9646;-73
2023/06/23 14:41:09;;;;;;;;;6.00;5.00;;;;;;;;5092079;28;8806;-73
2023/06/23 14:43:34;;;;;;;;;7.00;4.67;;;;;;;;5091940;28;8817;-71
2023/06/23 14:46:00;;;;;;;;;5.00;4.00;;;;;;;;5076145;28;8892;-80
2023/06/23 14:48:25;;;;;;;;;6.00;4.00;;;;;;;;5075725;28;9514;-78
2023/06/23 14:50:51;;;;;;;;;5.00;4.00;;;;;;;;5084111;28;8810;-77
2023/06/23 14:53:16;;;;;;;;;6.33;5.33;;;;;;;;5071600;28;9515;-75
2023/06/23 14:55:41;;;;;;;;;18.33;16.00;;;;;;;;5071332;28;8847;-76
2023/06/23 14:58:08;;;;;;;;;8.00;6.33;;;;;;;;5061197;28;8936;-73
2023/06/23 15:00:33;;;;;;;;;6.75;6.00;;;;;;;;5082719;28;8805;-70
2023/06/23 15:02:58;;;;;;;;;11.33;11.33;;;;;;;;5091579;28;8849;-70
2023/06/23 15:05:24;;;;;;;;;7.67;5.00;;;;;;;;5090119;28;8813;-71
2023/06/23 15:07:49;;;;;;;;;5.67;4.00;;;;;;;;5090207;28;8782;-71
2023/06/23 15:10:15;;;;;;;;;4.67;4.67;;;;;;;;5090881;28;8905;-72
2023/06/23 15:12:40;;;;;;;;;4.00;4.00;;;;;;;;5071270;28;8865;-72
2023/06/23 15:15:05;;;;;;;;;10.67;7.00;;;;;;;;5090986;28;8809;-74
2023/06/23 15:17:31;;;;;;;;;6.67;6.00;;;;;;;;5091087;28;8866;-72
2023/06/23 15:19:56;;;;;;;;;7.00;5.00;;;;;;;;5091610;28;8870;-72
2023/06/23 15:22:21;;;;;;;;;5.33;5.00;;;;;;;;5090349;28;8789;-72
2023/06/23 15:24:47;;;;;;;;;6.00;6.00;;;;;;;;5090954;28;8814;-71
2023/06/23 15:27:12;;;;;;;;;6.33;5.67;;;;;;;;5090781;28;8790;-73
2023/06/23 15:29:37;;;;;;;;;10.67;9.00;;;;;;;;5091002;28;8786;-72
2023/06/23 15:32:03;;;;;;;;;6.67;6.67;;;;;;;;5091646;28;8889;-72
2023/06/23 15:34:29;;;;;;;;;11.67;8.33;;;;;;;;5091064;28;8810;-71
2023/06/23 15:36:55;;;;;;;;;9.25;6.75;;;;;;;;5090965;28;8846;-69
2023/06/23 15:39:22;;;;;;;;;11.67;7.00;;;;;;;;5091007;28;9005;-72
2023/06/23 15:41:49;;;;;;;;;7.75;7.00;;;;;;;;5091006;28;8786;-72
2023/06/23 15:44:14;;;;;;;;;6.25;5.00;;;;;;;;5088697;28;8818;-73
2023/06/23 15:46:40;;;;;;;;;7.67;7.67;;;;;;;;5085709;28;8843;-73
2023/06/23 15:49:06;;;;;;;;;10.00;8.00;;;;;;;;5090627;28;8794;-73
2023/06/23 15:51:31;;;;;;;;;8.75;6.50;;;;;;;;5090319;28;8814;-72
2023/06/23 15:53:57;;;;;;;;;10.33;7.00;;;;;;;;5090492;28;8820;-72
2023/06/23 15:56:22;;;;;;;;;14.67;11.67;;;;;;;;5090160;28;8822;-72
2023/06/23 15:58:47;;;;;;;;;11.00;9.00;;;;;;;;5090933;28;8805;-73
2023/06/23 16:01:14;;;;;;;;;23.67;21.33;;;;;;;;5090300;28;8794;-72
2023/06/23 16:03:39;;;;;;;;;11.00;11.00;;;;;;;;5095445;28;8819;-73
2023/06/23 16:06:04;;;;;;;;;7.33;7.33;;;;;;;;5098875;28;8790;-72
2023/06/23 16:08:29;;;;;;;;;6.33;6.33;;;;;;;;5100845;28;8752;-71
2023/06/23 16:10:55;;;;;;;;;11.67;7.00;;;;;;;;5100550;28;8782;-72
2023/06/23 16:13:20;;;;;;;;;9.00;8.33;;;;;;;;5099103;28;8902;-72
2023/06/23 16:15:45;;;;;;;;;6.33;6.00;;;;;;;;5098695;28;8936;-72
2023/06/23 16:18:10;;;;;;;;;7.00;7.00;;;;;;;;5100304;28;8784;-73
2023/06/23 16:20:39;;;;;;;;;10.00;8.00;;;;;;;;5096497;28;8816;-72
2023/06/23 16:23:05;;;;;;;;;6.25;6.25;;;;;;;;5100427;28;8816;-73
2023/06/23 16:25:30;;;;;;;;;14.00;12.67;;;;;;;;5099390;28;8838;-74
2023/06/23 16:27:57;;;;;;;;;10.00;7.00;;;;;;;;5099581;28;9622;-74
2023/06/23 16:30:22;;;;;;;;;13.25;9.75;;;;;;;;5099959;28;8812;-74
2023/06/23 16:32:47;;;;;;;;;12.00;10.00;;;;;;;;5099552;28;8776;-73
2023/06/23 16:35:12;;;;;;;;;11.00;9.33;;;;;;;;5098451;28;8804;-71
2023/06/23 16:37:38;;;;;;;;;9.67;8.00;;;;;;;;5099637;28;8795;-73
2023/06/23 16:40:03;;;;;;;;;9.33;7.67;;;;;;;;5099914;28;8802;-72
2023/06/23 16:42:29;;;;;;;;;6.00;6.00;;;;;;;;5097961;28;8834;-71
2023/06/23 16:44:55;;;;;;;;;6.00;6.00;;;;;;;;5080072;28;8822;-70
2023/06/23 16:47:20;;;;;;;;;9.67;7.00;;;;;;;;5099688;28;8802;-70
2023/06/23 16:49:46;;;;;;;;;8.00;7.00;;;;;;;;5099840;28;8788;-71
2023/06/23 16:52:12;;;;;;;;;7.00;7.00;;;;;;;;5098948;28;8782;-70
2023/06/23 16:54:37;;;;;;;;;6.33;6.33;;;;;;;;5098997;28;8859;-71
2023/06/23 16:57:04;;;;;;;;;6.00;6.00;;;;;;;;5100653;28;8836;-70
2023/06/23 16:59:29;;;;;;;;;7.00;6.25;;;;;;;;5078087;28;8883;-73
2023/06/23 17:01:55;;;;;;;;;7.00;7.00;;;;;;;;5098634;28;8838;-72
2023/06/23 17:04:21;;;;;;;;;11.33;7.33;;;;;;;;5098216;28;9576;-71
2023/06/23 17:06:46;;;;;;;;;7.33;6.33;;;;;;;;5080024;28;9734;-72
2023/06/23 17:09:12;;;;;;;;;6.00;6.00;;;;;;;;5100591;28;8922;-71
2023/06/23 17:11:37;;;;;;;;;7.00;5.00;;;;;;;;5098521;28;8802;-71
2023/06/23 17:14:02;;;;;;;;;8.67;5.67;;;;;;;;5090765;28;8806;-75
2023/06/23 17:16:28;;;;;;;;;10.00;6.00;;;;;;;;5077838;28;8938;-74
2023/06/23 17:18:53;;;;;;;;;9.33;6.00;;;;;;;;5094181;28;8854;-74
2023/06/23 17:21:19;;;;;;;;;5.33;5.33;;;;;;;;5091461;28;8811;-75
2023/06/23 17:23:44;;;;;;;;;6.00;5.33;;;;;;;;5109662;28;8891;-71
2023/06/23 17:26:10;;;;;;;;;5.33;5.00;;;;;;;;5109548;28;8931;-73
2023/06/23 17:28:35;;;;;;;;;8.00;6.00;;;;;;;;5109895;28;8880;-76
2023/06/23 17:31:00;;;;;;;;;7.00;5.00;;;;;;;;5109907;28;8779;-72
2023/06/23 17:33:25;;;;;;;;;8.33;5.00;;;;;;;;5109487;28;8804;-72
2023/06/23 17:35:51;;;;;;;;;5.00;4.00;;;;;;;;5096717;28;8837;-71
2023/06/23 17:38:16;;;;;;;;;7.33;6.00;;;;;;;;5088286;28;8785;-70
2023/06/23 17:40:42;;;;;;;;;8.00;5.00;;;;;;;;5080645;28;9551;-73
2023/06/23 17:43:07;;;;;;;;;6.33;6.00;;;;;;;;5088058;28;8797;-73
2023/06/23 17:45:32;;;;;;;;;6.67;5.00;;;;;;;;5088990;28;8913;-74
2023/06/23 17:47:58;;;;;;;;;5.00;4.00;;;;;;;;5091812;28;8829;-71
2023/06/23 17:50:23;;;;;;;;;9.67;6.00;;;;;;;;5090674;28;8829;-71
2023/06/23 17:52:49;;;;;;;;;3.00;3.00;;;;;;;;5090744;28;8810;-69
2023/06/23 17:55:14;;;;;;;;;3.33;3.33;;;;;;;;5091849;28;8834;-70
2023/06/23 17:57:40;;;;;;;;;5.33;4.33;;;;;;;;5093009;28;9634;-71
2023/06/23 18:00:05;;;;;;;;;6.00;5.00;;;;;;;;5092479;28;8786;-74
2023/06/23 18:02:31;;;;;;;;;8.00;5.00;;;;;;;;5096265;28;8805;-73
2023/06/23 18:04:56;;;;;;;;;7.00;5.00;;;;;;;;5092691;28;8809;-73
2023/06/23 18:07:21;;;;;;;;;10.00;9.00;;;;;;;;5092891;28;8829;-72
2023/06/23 18:09:46;;;;;;;;;21.33;18.33;;;;;;;;5107072;28;8848;-72
2023/06/23 18:12:12;;;;;;;;;7.00;6.00;;;;;;;;5113392;28;8788;-72
2023/06/23 18:14:37;;;;;;;;;4.67;4.67;;;;;;;;5108021;28;8820;-72
2023/06/23 18:17:02;;;;;;;;;5.33;5.33;;;;;;;;5108165;28;8850;-74
2023/06/23 18:19:28;;;;;;;;;5.00;5.00;;;;;;;;5112245;28;8804;-72
2023/06/23 18:21:53;;;;;;;;;7.00;7.00;;;;;;;;5112966;28;8796;-71
2023/06/23 18:24:19;;;;;;;;;7.67;7.67;;;;;;;;5112839;28;8795;-75
2023/06/23 18:26:45;;;;;;;;;6.00;4.67;;;;;;;;5086581;28;9043;-74
2023/06/23 18:29:10;;;;;;;;;9.00;5.33;;;;;;;;5092287;28;8790;-75
2023/06/23 18:31:37;;;;;;;;;6.00;6.00;;;;;;;;5092682;28;8903;-73
2023/06/23 18:34:02;;;;;;;;;7.50;4.25;;;;;;;;5074142;28;9639;-73
2023/06/23 18:36:27;;;;;;;;;8.33;4.00;;;;;;;;5093150;28;8998;-84
2023/06/23 18:38:52;;;;;;;;;11.00;10.00;;;;;;;;5088575;28;8886;-84
2023/06/23 18:41:18;;;;;;;;;12.00;11.00;;;;;;;;5089791;28;8841;-83
2023/06/23 18:43:44;;;;;;;;;10.67;9.33;;;;;;;;5093362;28;8919;-82
2023/06/23 18:46:09;;;;;;;;;11.33;10.67;;;;;;;;5094666;28;10312;-84
2023/06/23 18:48:34;;;;;;;;;10.67;9.33;;;;;;;;5078783;28;8978;-89
2023/06/23 18:51:00;;;;;;;;;11.00;10.00;;;;;;;;5096367;28;8918;-83
2023/06/23 18:53:31;;;;;;;;;6.00;6.00;;;;;;;;5113914;28;8780;-82
2023/06/23 18:55:56;;;;;;;;;11.50;9.50;;;;;;;;5113479;28;8942;-78
2023/06/23 18:58:21;;;;;;;;;6.33;6.33;;;;;;;;5108671;28;9062;-75
2023/06/23 19:00:47;;;;;;;;;10.33;7.00;;;;;;;;5112705;28;8806;-77
2023/06/23 19:03:12;;;;;;;;;6.33;6.33;;;;;;;;5094508;28;8815;-76
2023/06/23 19:05:37;;;;;;;;;7.33;5.00;;;;;;;;5112101;28;8787;-70
2023/06/23 19:08:03;;;;;;;;;6.00;4.33;;;;;;;;5083627;28;8823;-70
2023/06/23 19:10:28;;;;;;;;;6.33;4.67;;;;;;;;5091247;28;8917;-71
2023/06/23 19:12:54;;;;;;;;;5.33;5.33;;;;;;;;5111668;28;8830;-71
2023/06/23 19:15:19;;;;;;;;;6.00;6.00;;;;;;;;5101107;28;8873;-74
2023/06/23 19:17:44;;;;;;;;;8.67;6.67;;;;;;;;5090160;28;8916;-70
2023/06/23 19:20:10;;;;;;;;;6.33;6.00;;;;;;;;5107747;28;8784;-75
2023/06/23 19:22:35;;;;;;;;;7.00;7.00;;;;;;;;5123574;28;8784;-78
2023/06/23 19:25:01;;;;;;;;;7.00;6.67;;;;;;;;5087945;28;8879;-75
2023/06/23 19:27:26;;;;;;;;;9.67;8.00;;;;;;;;5077715;28;8879;-79
2023/06/23 19:29:51;;;;;;;;;8.00;6.00;;;;;;;;5091745;28;9505;-78
2023/06/23 19:32:17;;;;;;;;;7.67;6.33;;;;;;;;5074784;28;8838;-82
2023/06/23 19:34:42;;;;;;;;;12.67;11.00;;;;;;;;5092062;28;8817;-82
2023/06/23 19:37:09;;;;;;;;;7.33;6.00;;;;;;;;5087443;28;8842;-82
2023/06/23 19:39:34;;;;;;;;;6.25;6.25;;;;;;;;5078818;28;9764;-83
2023/06/23 19:42:02;;;;;;;;;10.00;6.67;;;;;;;;5101038;28;8888;-81
2023/06/23 19:44:28;;;;;;;;;10.00;7.25;;;;;;;;5093546;28;8838;-76
2023/06/23 19:46:53;;;;;;;;;9.00;8.00;;;;;;;;5079952;28;8847;-70
2023/06/23 19:49:21;;;;;;;;;10.33;9.67;;;;;;;;5104251;28;8794;-69
2023/06/23 19:51:49;;;;;;;;;11.00;11.00;;;;;;;;5079926;28;9539;-76
2023/06/23 19:54:19;;;;;;;;;9.75;8.00;;;;;;;;5080070;28;8806;-75
2023/06/23 19:56:44;;;;;;;;;11.25;8.50;;;;;;;;5094302;28;8842;-78
2023/06/23 19:59:09;;;;;;;;;9.33;9.33;;;;;;;;5093186;28;8815;-75
2023/06/23 20:01:35;;;;;;;;;8.67;8.67;;;;;;;;5092633;28;8794;-76
2023/06/23 20:04:00;;;;;;;;;9.33;7.67;;;;;;;;5092936;28;8833;-78
2023/06/23 20:06:28;;;;;;;;;9.00;9.00;;;;;;;;5093473;28;8834;-86
2023/06/23 20:08:55;;;;;;;;;9.25;7.00;;;;;;;;5073378;28;8826;-85
2023/06/23 20:11:20;;;;;;;;;30.00;24.00;;;;;;;;5076230;28;8950;-84
2023/06/23 20:13:45;;;;;;;;;9.33;9.00;;;;;;;;5096005;28;10222;-79
2023/06/23 20:16:11;;;;;;;;;28.75;24.00;;;;;;;;5089498;28;8837;-81
2023/06/23 20:18:36;;;;;;;;;9.67;9.00;;;;;;;;5092723;28;8788;-78
2023/06/23 20:21:01;;;;;;;;;9.67;9.00;;;;;;;;5072436;28;8913;-79
2023/06/23 20:23:30;;;;;;;;;8.33;8.00;;;;;;;;5090654;28;8790;-76
2023/06/23 20:25:57;;;;;;;;;16.33;15.33;;;;;;;;5090251;28;8829;-78
2023/06/23 20:28:22;;;;;;;;;14.33;14.33;;;;;;;;5084581;28;9138;-80
2023/06/23 20:30:48;;;;;;;;;13.00;13.00;;;;;;;;5093128;28;8973;-80
2023/06/23 20:33:13;;;;;;;;;27.00;23.33;;;;;;;;5090861;28;8805;-78
2023/06/23 20:35:38;;;;;;;;;39.00;33.25;;;;;;;;5089660;28;8830;-73
2023/06/23 20:38:07;;;;;;;;;13.00;13.00;;;;;;;;5098647;28;8854;-73
2023/06/23 20:40:32;;;;;;;;;8.00;8.00;;;;;;;;5110153;28;8780;-73
2023/06/23 20:42:57;;;;;;;;;10.00;9.00;;;;;;;;5110101;28;9032;-76
2023/06/23 20:45:23;;;;;;;;;14.33;12.33;;;;;;;;5098372;28;8822;-72
2023/06/23 20:47:50;;;;;;;;;12.33;11.33;;;;;;;;5070113;28;8941;-71
2023/06/23 20:50:19;;;;;;;;;11.00;10.50;;;;;;;;5085862;28;8827;-73
2023/06/23 20:52:45;;;;;;;;;6.75;6.75;;;;;;;;5089790;28;9668;-73
2023/06/23 20:55:10;;;;;;;;;10.67;7.00;;;;;;;;5089611;28;8964;-72
2023/06/23 20:57:35;;;;;;;;;7.33;6.00;;;;;;;;5089751;28;8822;-76
2023/06/23 21:00:02;;;;;;;;;11.67;8.33;;;;;;;;5089456;28;8817;-76
2023/06/23 21:02:28;;;;;;;;;9.00;8.00;;;;;;;;5089387;28;8798;-78
2023/06/23 21:04:56;;;;;;;;;20.33;18.00;;;;;;;;5086178;28;8834;-72
2023/06/23 21:07:24;;;;;;;;;14.50;12.75;;;;;;;;5078409;28;8915;-72
2023/06/23 21:09:50;;;;;;;;;9.75;8.50;;;;;;;;5069193;28;8955;-71
2023/06/23 21:12:16;;;;;;;;;8.00;7.50;;;;;;;;5069141;28;8835;-70
2023/06/23 21:14:41;;;;;;;;;7.00;7.00;;;;;;;;5068959;28;8934;-72
2023/06/23 21:17:07;;;;;;;;;8.00;6.00;;;;;;;;5069074;28;8820;-72
2023/06/23 21:19:33;;;;;;;;;6.67;6.33;;;;;;;;5090718;28;8831;-73
2023/06/23 21:22:02;;;;;;;;;9.50;8.00;;;;;;;;5091178;28;8819;-73
2023/06/23 21:24:30;;;;;;;;;7.00;7.00;;;;;;;;5109236;28;8796;-72
2023/06/23 21:26:55;;;;;;;;;9.00;7.67;;;;;;;;5109640;28;8784;-72
2023/06/23 21:29:21;;;;;;;;;7.33;6.00;;;;;;;;5109658;28;9640;-72
2023/06/23 21:31:46;;;;;;;;;6.00;6.00;;;;;;;;5109640;28;8862;-69
2023/06/23 21:34:11;;;;;;;;;6.67;6.67;;;;;;;;5109416;28;8806;-68
2023/06/23 21:36:36;;;;;;;;;5.33;5.00;;;;;;;;5091062;28;8804;-69
2023/06/23 21:39:02;;;;;;;;;7.00;6.00;;;;;;;;5108801;28;8905;-67
2023/06/23 21:41:27;;;;;;;;;10.33;9.33;;;;;;;;5109308;28;8799;-69
2023/06/23 21:43:53;;;;;;;;;9.67;8.00;;;;;;;;5109427;28;8787;-70
2023/06/23 21:46:18;;;;;;;;;6.00;5.00;;;;;;;;5090605;28;8778;-76
2023/06/23 21:48:43;;;;;;;;;7.67;6.33;;;;;;;;5084272;28;8806;-74
2023/06/23 21:51:09;;;;;;;;;5.67;5.00;;;;;;;;5089332;28;8833;-75
2023/06/23 21:53:35;;;;;;;;;4.75;3.75;;;;;;;;5089154;28;8786;-75
2023/06/23 21:56:00;;;;;;;;;4.33;3.33;;;;;;;;5088466;28;8821;-75
2023/06/23 21:58:25;;;;;;;;;5.67;4.33;;;;;;;;5070329;28;8798;-72
2023/06/23 22:00:51;;;;;;;;;5.67;4.00;;;;;;;;5088006;28;8808;-73
2023/06/23 22:03:16;;;;;;;;;7.00;6.00;;;;;;;;5069627;28;8794;-73
2023/06/23 22:05:41;;;;;;;;;4.00;4.00;;;;;;;;5088976;28;8782;-73
2023/06/23 22:08:06;;;;;;;;;6.67;6.67;;;;;;;;5088889;28;8855;-72
2023/06/23 22:10:32;;;;;;;;;6.00;5.00;;;;;;;;5087693;28;8955;-73
2023/06/23 22:13:00;;;;;;;;;5.33;4.33;;;;;;;;5086425;28;8882;-72
2023/06/23 22:15:25;;;;;;;;;5.25;5.25;;;;;;;;5086740;28;8825;-73
2023/06/23 22:17:50;;;;;;;;;7.00;4.00;;;;;;;;5086969;28;8810;-73
2023/06/23 22:20:18;;;;;;;;;5.33;4.67;;;;;;;;5104895;28;8803;-73
2023/06/23 22:22:43;;;;;;;;;7.75;6.00;;;;;;;;5107803;28;8811;-72
2023/06/23 22:25:08;;;;;;;;;4.00;4.00;;;;;;;;5107237;28;8856;-72
2023/06/23 22:27:33;;;;;;;;;7.00;5.00;;;;;;;;5109105;28;8857;-72
2023/06/23 22:29:59;;;;;;;;;9.33;8.33;;;;;;;;5109115;28;8787;-73
2023/06/23 22:32:24;;;;;;;;;5.00;5.00;;;;;;;;5090927;28;8818;-74
2023/06/23 22:34:49;;;;;;;;;5.67;5.00;;;;;;;;5112923;28;8834;-73
2023/06/23 22:37:15;;;;;;;;;5.00;5.00;;;;;;;;5094515;28;8804;-73
2023/06/23 22:39:40;;;;;;;;;5.67;4.67;;;;;;;;5112799;28;8776;-73
2023/06/23 22:42:05;;;;;;;;;6.00;4.00;;;;;;;;5094359;28;8816;-72
2023/06/23 22:44:31;;;;;;;;;5.33;5.33;;;;;;;;5108532;28;8798;-76
2023/06/23 22:46:56;;;;;;;;;8.67;6.67;;;;;;;;5074350;28;8810;-74
2023/06/23 22:49:21;;;;;;;;;6.67;6.00;;;;;;;;5101289;28;8807;-74
2023/06/23 22:51:53;;;;;;;;;7.00;7.00;;;;;;;;5112737;28;8939;-73
2023/06/23 22:54:19;;;;;;;;;8.75;7.25;;;;;;;;5112654;28;8802;-75
2023/06/23 22:56:45;;;;;;;;;8.67;7.67;;;;;;;;5112902;28;9552;-74
2023/06/23 22:59:10;;;;;;;;;5.33;5.00;;;;;;;;5112518;28;8869;-74
2023/06/23 23:01:38;;;;;;;;;10.67;9.33;;;;;;;;5110774;28;8811;-75
2023/06/23 23:04:03;;;;;;;;;8.00;7.33;;;;;;;;5111530;27;9506;-74
2023/06/23 23:06:29;;;;;;;;;8.00;5.00;;;;;;;;5112294;28;8899;-75
2023/06/23 23:08:54;;;;;;;;;7.67;5.00;;;;;;;;5111736;28;8873;-73
2023/06/23 23:11:19;;;;;;;;;6.00;6.00;;;;;;;;5112532;28;8826;-75
